createdAt,value
2022-11-20T19:37:47.104Z,90.62
2022-11-20T19:39:55.801Z,90.19
2022-11-20T19:42:03.215Z,90.03
2022-11-20T19:44:11.411Z,89.74
2022-11-20T19:46:20.138Z,89.73
2022-11-20T19:48:32.998Z,89.53
2022-11-20T19:50:41.431Z,88.97
2022-11-20T19:52:55.706Z,88.96
2022-11-20T19:55:04.987Z,88.83
2022-11-20T19:57:11.013Z,89.01
2022-11-20T19:59:21.111Z,88.58
2022-11-20T20:01:31.714Z,88.35
2022-11-20T20:03:39.181Z,88.28
2022-11-20T20:05:45.481Z,88.38
2022-11-20T20:07:52.632Z,88.22
2022-11-20T20:09:59.333Z,88.29
2022-11-20T20:12:06.728Z,88.07
2022-11-20T20:14:14.755Z,87.93
2022-11-20T20:16:22.734Z,87.96
2022-11-20T20:18:31.535Z,87.75
2022-11-20T20:20:41.693Z,87.84
2022-11-20T20:22:51.444Z,87.74
2022-11-20T20:24:57.569Z,87.64
2022-11-20T20:27:04.356Z,87.63
2022-11-20T20:29:11.055Z,87.03
2022-11-20T20:31:19.404Z,86.82
2022-11-20T20:33:26.825Z,87.33
2022-11-20T20:35:34.858Z,87.62
2022-11-20T20:37:40.951Z,88.51
2022-11-20T20:39:46.441Z,88.37
2022-11-20T20:41:58.084Z,88.31
2022-11-20T20:44:07.839Z,88.47
2022-11-20T20:46:14.597Z,89.49
2022-11-20T20:48:23.568Z,88.88
2022-11-20T20:50:36.473Z,89.61
2022-11-20T20:52:43.046Z,89.54
2022-11-20T20:54:49.371Z,89.86
2022-11-20T20:56:56.584Z,90.57
2022-11-20T20:59:04.676Z,90.58
2022-11-20T21:01:15.852Z,91.01
2022-11-20T21:03:24.161Z,91.25
2022-11-20T21:05:32.447Z,91.53
2022-11-20T21:07:38.238Z,91.38
2022-11-20T21:09:57.076Z,90.79
2022-11-20T21:12:02.119Z,90.51
2022-11-20T21:14:07.273Z,90.54
2022-11-20T21:16:13.975Z,91.95
2022-11-20T21:18:20.927Z,92.45
2022-11-20T21:20:25.863Z,91.31
2022-11-20T21:22:36.450Z,91.03
2022-11-20T21:24:41.536Z,90.99
2022-11-20T21:26:47.468Z,91.37
2022-11-20T21:28:52.843Z,90.92
2022-11-20T21:31:06.941Z,90.95
2022-11-20T21:33:15.544Z,90.69
2022-11-20T21:35:21.106Z,90.30
2022-11-20T21:37:28.895Z,90.45
2022-11-20T21:39:33.549Z,90.14
2022-11-20T21:41:38.805Z,90.49
2022-11-20T21:43:43.685Z,90.63
2022-11-20T21:45:48.883Z,90.83
2022-11-20T21:47:56.903Z,90.74
2022-11-20T21:50:01.966Z,90.69
2022-11-20T21:52:06.721Z,90.76
2022-11-20T21:54:12.517Z,90.62
2022-11-20T21:56:20.742Z,91.00
2022-11-20T21:58:25.976Z,91.17
2022-11-20T22:00:30.743Z,91.77
2022-11-20T22:02:35.436Z,92.52
2022-11-20T22:04:40.093Z,92.62
2022-11-20T22:06:44.741Z,92.70
2022-11-20T22:08:50.113Z,93.31
2022-11-20T22:10:59.855Z,93.48
2022-11-20T22:13:07.375Z,93.45
2022-11-20T22:15:12.913Z,93.87
2022-11-20T22:17:17.611Z,93.83
2022-11-20T22:19:23.251Z,94.11
2022-11-20T22:21:29.711Z,94.02
2022-11-20T22:23:35.040Z,93.96
2022-11-20T22:25:39.728Z,94.14
2022-11-20T22:27:45.756Z,93.79
2022-11-20T22:29:50.514Z,93.69
2022-11-20T22:31:55.149Z,93.72
2022-11-20T22:34:01.651Z,93.77
2022-11-20T22:36:08.862Z,93.54
2022-11-20T22:38:13.668Z,93.54
2022-11-20T22:40:18.393Z,93.55
2022-11-20T22:42:23.112Z,93.53
2022-11-20T22:44:27.912Z,92.93
2022-11-20T22:46:34.061Z,91.90
2022-11-20T22:48:40.664Z,91.98
2022-11-20T22:50:45.387Z,91.95
2022-11-20T22:52:50.131Z,92.05
2022-11-20T22:54:54.775Z,91.84
2022-11-20T22:56:59.393Z,91.98
2022-11-20T22:59:04.582Z,92.20
2022-11-20T23:01:11.475Z,91.95
2022-11-20T23:03:16.135Z,91.37
2022-11-20T23:05:20.725Z,91.68
2022-11-20T23:07:25.445Z,91.45
2022-11-20T23:09:30.178Z,91.49
2022-11-20T23:11:35.655Z,91.35
2022-11-20T23:13:41.447Z,91.23
2022-11-20T23:15:46.075Z,91.28
2022-11-20T23:17:50.729Z,91.41
2022-11-20T23:19:55.361Z,91.36
2022-11-20T23:22:00.036Z,91.31
2022-11-20T23:24:05.825Z,91.42
2022-11-20T23:26:11.999Z,91.42
2022-11-20T23:28:16.627Z,91.20
2022-11-20T23:30:21.320Z,91.33
2022-11-20T23:32:26.039Z,91.37
2022-11-20T23:34:30.846Z,91.48
2022-11-20T23:36:35.449Z,91.30
2022-11-20T23:38:40.562Z,91.73
2022-11-20T23:40:48.587Z,91.49
2022-11-20T23:42:53.245Z,91.45
2022-11-20T23:44:57.897Z,90.64
2022-11-20T23:47:02.474Z,90.98
2022-11-20T23:49:07.258Z,90.74
2022-11-20T23:51:12.562Z,90.35
2022-11-20T23:53:17.915Z,90.44
2022-11-20T23:55:22.557Z,90.34
2022-11-20T23:57:27.157Z,89.75
2022-11-20T23:59:31.718Z,89.96
